sensor_id;sensor_type;location;lat;lon;timestamp;temperature;humidity
8214;DHT22;4148;47.974;7.824;2023-03-31T00:01:29;14.70;99.90
8214;DHT22;4148;47.974;7.824;2023-03-31T00:04:00;14.60;99.90
8214;DHT22;4148;47.974;7.824;2023-03-31T00:06:32;14.60;99.90
8214;DHT22;4148;47.974;7.824;2023-03-31T00:09:04;14.70;99.90
8214;DHT22;4148;47.974;7.824;2023-03-31T00:11:32;14.70;99.90
8214;DHT22;4148;47.974;7.824;2023-03-31T00:14:00;14.60;99.90
8214;DHT22;4148;47.974;7.824;2023-03-31T00:16:28;14.60;99.90
8214;DHT22;4148;47.974;7.824;2023-03-31T00:18:55;14.60;99.90
8214;DHT22;4148;47.974;7.824;2023-03-31T00:21:25;14.60;99.90
8214;DHT22;4148;47.974;7.824;2023-03-31T00:23:55;14.60;99.90
8214;DHT22;4148;47.974;7.824;2023-03-31T00:26:24;14.60;99.90
8214;DHT22;4148;47.974;7.824;2023-03-31T00:28:52;14.60;99.90
8214;DHT22;4148;47.974;7.824;2023-03-31T00:31:21;14.60;99.90
8214;DHT22;4148;47.974;7.824;2023-03-31T00:33:49;14.50;99.90
8214;DHT22;4148;47.974;7.824;2023-03-31T00:36:17;14.50;99.90
8214;DHT22;4148;47.974;7.824;2023-03-31T00:38:55;14.40;99.90
8214;DHT22;4148;47.974;7.824;2023-03-31T00:41:25;14.30;99.90
8214;DHT22;4148;47.974;7.824;2023-03-31T00:44:04;14.30;99.90
8214;DHT22;4148;47.974;7.824;2023-03-31T00:46:36;14.30;99.90
8214;DHT22;4148;47.974;7.824;2023-03-31T00:49:12;14.10;99.90
8214;DHT22;4148;47.974;7.824;2023-03-31T00:51:42;14.00;99.90
8214;DHT22;4148;47.974;7.824;2023-03-31T00:54:11;14.00;99.90
8214;DHT22;4148;47.974;7.824;2023-03-31T00:56:44;13.90;99.90
8214;DHT22;4148;47.974;7.824;2023-03-31T00:59:14;13.80;99.90
8214;DHT22;4148;47.974;7.824;2023-03-31T01:01:45;13.80;99.90
8214;DHT22;4148;47.974;7.824;2023-03-31T01:04:16;13.90;99.90
8214;DHT22;4148;47.974;7.824;2023-03-31T01:06:54;13.80;99.90
8214;DHT22;4148;47.974;7.824;2023-03-31T01:09:29;13.70;99.90
8214;DHT22;4148;47.974;7.824;2023-03-31T01:12:02;13.80;99.90
8214;DHT22;4148;47.974;7.824;2023-03-31T01:14:32;13.80;99.90
8214;DHT22;4148;47.974;7.824;2023-03-31T01:17:00;13.70;99.90
8214;DHT22;4148;47.974;7.824;2023-03-31T01:19:38;13.60;99.90
8214;DHT22;4148;47.974;7.824;2023-03-31T01:22:25;13.50;99.90
8214;DHT22;4148;47.974;7.824;2023-03-31T01:25:31;13.40;99.90
8214;DHT22;4148;47.974;7.824;2023-03-31T01:28:17;13.30;99.90
8214;DHT22;4148;47.974;7.824;2023-03-31T01:31:12;13.30;99.90
8214;DHT22;4148;47.974;7.824;2023-03-31T01:34:15;13.20;99.90
8214;DHT22;4148;47.974;7.824;2023-03-31T01:37:21;13.20;99.90
8214;DHT22;4148;47.974;7.824;2023-03-31T01:43:09;13.10;99.90
8214;DHT22;4148;47.974;7.824;2023-03-31T01:45:49;13.10;99.90
8214;DHT22;4148;47.974;7.824;2023-03-31T01:48:30;13.10;99.90
8214;DHT22;4148;47.974;7.824;2023-03-31T01:51:02;13.10;99.90
8214;DHT22;4148;47.974;7.824;2023-03-31T01:53:35;12.90;99.90
8214;DHT22;4148;47.974;7.824;2023-03-31T01:56:10;12.80;99.90
8214;DHT22;4148;47.974;7.824;2023-03-31T01:58:42;12.70;99.90
8214;DHT22;4148;47.974;7.824;2023-03-31T02:01:15;12.60;99.90
8214;DHT22;4148;47.974;7.824;2023-03-31T02:03:48;12.60;99.90
8214;DHT22;4148;47.974;7.824;2023-03-31T02:06:20;12.70;99.90
8214;DHT22;4148;47.974;7.824;2023-03-31T02:08:54;12.70;99.90
8214;DHT22;4148;47.974;7.824;2023-03-31T02:11:27;12.90;99.90
8214;DHT22;4148;47.974;7.824;2023-03-31T02:13:56;12.90;99.90
8214;DHT22;4148;47.974;7.824;2023-03-31T02:16:29;12.80;99.90
8214;DHT22;4148;47.974;7.824;2023-03-31T02:19:01;12.80;99.90
8214;DHT22;4148;47.974;7.824;2023-03-31T02:21:32;12.70;99.90
8214;DHT22;4148;47.974;7.824;2023-03-31T02:24:03;12.60;99.90
8214;DHT22;4148;47.974;7.824;2023-03-31T02:26:38;12.70;99.90
8214;DHT22;4148;47.974;7.824;2023-03-31T02:29:06;12.50;99.90
8214;DHT22;4148;47.974;7.824;2023-03-31T02:31:40;12.70;99.90
8214;DHT22;4148;47.974;7.824;2023-03-31T02:34:10;12.60;99.90
8214;DHT22;4148;47.974;7.824;2023-03-31T02:36:40;12.60;99.90
8214;DHT22;4148;47.974;7.824;2023-03-31T02:39:09;12.60;99.90
8214;DHT22;4148;47.974;7.824;2023-03-31T02:41:40;12.50;99.90
8214;DHT22;4148;47.974;7.824;2023-03-31T02:44:08;12.60;99.90
8214;DHT22;4148;47.974;7.824;2023-03-31T02:46:37;12.50;99.90
8214;DHT22;4148;47.974;7.824;2023-03-31T02:49:06;12.50;99.90
8214;DHT22;4148;47.974;7.824;2023-03-31T02:51:52;12.50;99.90
8214;DHT22;4148;47.974;7.824;2023-03-31T02:54:33;12.60;99.90
8214;DHT22;4148;47.974;7.824;2023-03-31T02:57:18;12.60;99.90
8214;DHT22;4148;47.974;7.824;2023-03-31T02:59:56;12.40;99.90
8214;DHT22;4148;47.974;7.824;2023-03-31T03:02:33;12.40;99.90
8214;DHT22;4148;47.974;7.824;2023-03-31T03:05:13;12.30;99.90
8214;DHT22;4148;47.974;7.824;2023-03-31T03:07:48;12.30;99.90
8214;DHT22;4148;47.974;7.824;2023-03-31T03:10:27;12.30;99.90
8214;DHT22;4148;47.974;7.824;2023-03-31T03:13:05;12.40;99.90
8214;DHT22;4148;47.974;7.824;2023-03-31T03:15:39;12.40;99.90
8214;DHT22;4148;47.974;7.824;2023-03-31T03:18:08;12.30;99.90
8214;DHT22;4148;47.974;7.824;2023-03-31T03:20:36;12.30;99.90
8214;DHT22;4148;47.974;7.824;2023-03-31T03:23:04;12.10;99.90
8214;DHT22;4148;47.974;7.824;2023-03-31T03:25:32;12.10;99.90
8214;DHT22;4148;47.974;7.824;2023-03-31T03:28:02;12.00;99.90
8214;DHT22;4148;47.974;7.824;2023-03-31T03:30:29;12.00;99.90
8214;DHT22;4148;47.974;7.824;2023-03-31T03:32:57;12.00;99.90
8214;DHT22;4148;47.974;7.824;2023-03-31T03:35:25;12.00;99.90
8214;DHT22;4148;47.974;7.824;2023-03-31T03:37:53;12.00;99.90
8214;DHT22;4148;47.974;7.824;2023-03-31T03:40:21;12.00;99.90
8214;DHT22;4148;47.974;7.824;2023-03-31T03:42:49;12.00;99.90
8214;DHT22;4148;47.974;7.824;2023-03-31T03:45:18;12.10;99.90
8214;DHT22;4148;47.974;7.824;2023-03-31T03:47:46;12.10;99.90
8214;DHT22;4148;47.974;7.824;2023-03-31T03:50:13;12.20;99.90
8214;DHT22;4148;47.974;7.824;2023-03-31T03:52:42;12.20;99.90
8214;DHT22;4148;47.974;7.824;2023-03-31T03:55:10;12.10;99.90
8214;DHT22;4148;47.974;7.824;2023-03-31T03:57:39;12.10;99.90
8214;DHT22;4148;47.974;7.824;2023-03-31T04:00:08;12.10;99.90
8214;DHT22;4148;47.974;7.824;2023-03-31T04:02:39;12.10;99.90
8214;DHT22;4148;47.974;7.824;2023-03-31T04:05:08;12.20;99.90
8214;DHT22;4148;47.974;7.824;2023-03-31T04:07:36;12.30;99.90
8214;DHT22;4148;47.974;7.824;2023-03-31T04:10:04;12.60;99.90
8214;DHT22;4148;47.974;7.824;2023-03-31T04:12:33;12.60;99.90
8214;DHT22;4148;47.974;7.824;2023-03-31T04:15:01;12.50;99.90
8214;DHT22;4148;47.974;7.824;2023-03-31T04:17:29;12.50;99.90
8214;DHT22;4148;47.974;7.824;2023-03-31T04:20:03;12.60;99.90
8214;DHT22;4148;47.974;7.824;2023-03-31T04:22:34;12.60;99.90
8214;DHT22;4148;47.974;7.824;2023-03-31T04:25:09;12.80;99.90
8214;DHT22;4148;47.974;7.824;2023-03-31T04:27:42;13.00;99.90
8214;DHT22;4148;47.974;7.824;2023-03-31T04:30:13;13.20;99.90
8214;DHT22;4148;47.974;7.824;2023-03-31T04:32:50;13.30;99.90
8214;DHT22;4148;47.974;7.824;2023-03-31T04:35:21;13.30;99.90
8214;DHT22;4148;47.974;7.824;2023-03-31T04:37:51;13.40;99.90
8214;DHT22;4148;47.974;7.824;2023-03-31T04:40:24;13.50;99.90
8214;DHT22;4148;47.974;7.824;2023-03-31T04:42:52;13.50;99.90
8214;DHT22;4148;47.974;7.824;2023-03-31T04:45:19;13.70;99.90
8214;DHT22;4148;47.974;7.824;2023-03-31T04:47:47;13.60;99.90
8214;DHT22;4148;47.974;7.824;2023-03-31T04:50:15;13.50;99.90
8214;DHT22;4148;47.974;7.824;2023-03-31T04:52:44;13.30;99.90
8214;DHT22;4148;47.974;7.824;2023-03-31T04:55:12;13.20;99.90
8214;DHT22;4148;47.974;7.824;2023-03-31T04:57:40;13.10;99.90
8214;DHT22;4148;47.974;7.824;2023-03-31T05:00:09;12.90;99.90
8214;DHT22;4148;47.974;7.824;2023-03-31T05:02:37;12.70;99.90
8214;DHT22;4148;47.974;7.824;2023-03-31T05:05:05;12.80;99.90
8214;DHT22;4148;47.974;7.824;2023-03-31T05:07:33;12.70;99.90
8214;DHT22;4148;47.974;7.824;2023-03-31T05:10:03;12.60;99.90
8214;DHT22;4148;47.974;7.824;2023-03-31T05:12:33;12.60;99.90
8214;DHT22;4148;47.974;7.824;2023-03-31T05:15:01;12.50;99.90
8214;DHT22;4148;47.974;7.824;2023-03-31T05:17:31;12.40;99.90
8214;DHT22;4148;47.974;7.824;2023-03-31T05:19:59;12.30;99.90
8214;DHT22;4148;47.974;7.824;2023-03-31T05:22:27;12.20;99.90
8214;DHT22;4148;47.974;7.824;2023-03-31T05:24:55;12.20;99.90
8214;DHT22;4148;47.974;7.824;2023-03-31T05:27:24;12.30;99.90
8214;DHT22;4148;47.974;7.824;2023-03-31T05:29:52;12.40;99.90
8214;DHT22;4148;47.974;7.824;2023-03-31T05:32:19;12.60;99.90
8214;DHT22;4148;47.974;7.824;2023-03-31T05:34:47;12.70;99.90
8214;DHT22;4148;47.974;7.824;2023-03-31T05:37:19;12.60;99.90
8214;DHT22;4148;47.974;7.824;2023-03-31T05:39:46;12.50;99.90
8214;DHT22;4148;47.974;7.824;2023-03-31T05:42:14;12.50;99.90
8214;DHT22;4148;47.974;7.824;2023-03-31T05:44:43;12.30;99.90
8214;DHT22;4148;47.974;7.824;2023-03-31T05:47:11;12.20;99.90
8214;DHT22;4148;47.974;7.824;2023-03-31T05:49:39;12.30;99.90
8214;DHT22;4148;47.974;7.824;2023-03-31T05:52:08;12.10;99.90
8214;DHT22;4148;47.974;7.824;2023-03-31T05:54:36;11.90;99.90
8214;DHT22;4148;47.974;7.824;2023-03-31T05:57:04;11.90;99.90
8214;DHT22;4148;47.974;7.824;2023-03-31T05:59:32;11.80;99.90
8214;DHT22;4148;47.974;7.824;2023-03-31T06:02:03;11.70;99.90
8214;DHT22;4148;47.974;7.824;2023-03-31T06:04:31;11.70;99.90
8214;DHT22;4148;47.974;7.824;2023-03-31T06:06:59;11.80;99.90
8214;DHT22;4148;47.974;7.824;2023-03-31T06:09:27;11.80;99.90
8214;DHT22;4148;47.974;7.824;2023-03-31T06:11:55;11.60;99.90
8214;DHT22;4148;47.974;7.824;2023-03-31T06:14:22;11.50;99.90
8214;DHT22;4148;47.974;7.824;2023-03-31T06:16:50;11.20;99.90
8214;DHT22;4148;47.974;7.824;2023-03-31T06:19:19;11.20;99.90
8214;DHT22;4148;47.974;7.824;2023-03-31T06:21:47;11.00;99.90
8214;DHT22;4148;47.974;7.824;2023-03-31T06:24:15;11.00;99.90
8214;DHT22;4148;47.974;7.824;2023-03-31T06:26:43;11.00;99.90
8214;DHT22;4148;47.974;7.824;2023-03-31T06:29:11;11.10;99.90
8214;DHT22;4148;47.974;7.824;2023-03-31T06:31:39;11.10;99.90
8214;DHT22;4148;47.974;7.824;2023-03-31T06:34:07;11.10;99.90
8214;DHT22;4148;47.974;7.824;2023-03-31T06:36:36;11.30;99.90
8214;DHT22;4148;47.974;7.824;2023-03-31T06:39:03;11.20;99.90
8214;DHT22;4148;47.974;7.824;2023-03-31T06:41:31;11.30;99.90
8214;DHT22;4148;47.974;7.824;2023-03-31T06:43:59;11.10;99.90
8214;DHT22;4148;47.974;7.824;2023-03-31T06:46:27;11.10;99.90
8214;DHT22;4148;47.974;7.824;2023-03-31T06:48:55;11.10;99.90
8214;DHT22;4148;47.974;7.824;2023-03-31T06:51:23;11.10;99.90
8214;DHT22;4148;47.974;7.824;2023-03-31T06:53:52;11.00;99.90
8214;DHT22;4148;47.974;7.824;2023-03-31T06:56:19;11.00;99.90
8214;DHT22;4148;47.974;7.824;2023-03-31T06:58:47;11.00;99.90
8214;DHT22;4148;47.974;7.824;2023-03-31T07:01:15;11.00;99.90
8214;DHT22;4148;47.974;7.824;2023-03-31T07:03:43;11.10;99.90
8214;DHT22;4148;47.974;7.824;2023-03-31T07:06:11;11.00;99.90
8214;DHT22;4148;47.974;7.824;2023-03-31T07:08:39;11.00;99.90
8214;DHT22;4148;47.974;7.824;2023-03-31T07:11:08;11.20;99.90
8214;DHT22;4148;47.974;7.824;2023-03-31T07:13:36;11.30;99.90
8214;DHT22;4148;47.974;7.824;2023-03-31T07:16:04;11.30;99.90
8214;DHT22;4148;47.974;7.824;2023-03-31T07:18:34;11.50;99.90
8214;DHT22;4148;47.974;7.824;2023-03-31T07:21:03;11.60;99.90
8214;DHT22;4148;47.974;7.824;2023-03-31T07:23:36;11.80;99.90
8214;DHT22;4148;47.974;7.824;2023-03-31T07:26:04;12.00;99.90
8214;DHT22;4148;47.974;7.824;2023-03-31T07:28:34;12.00;99.90
8214;DHT22;4148;47.974;7.824;2023-03-31T07:31:02;12.10;99.90
8214;DHT22;4148;47.974;7.824;2023-03-31T07:33:30;12.30;99.90
8214;DHT22;4148;47.974;7.824;2023-03-31T07:35:58;12.40;99.90
8214;DHT22;4148;47.974;7.824;2023-03-31T07:38:39;12.50;99.90
8214;DHT22;4148;47.974;7.824;2023-03-31T07:41:09;12.70;99.90
8214;DHT22;4148;47.974;7.824;2023-03-31T07:43:39;12.80;99.90
8214;DHT22;4148;47.974;7.824;2023-03-31T07:46:13;12.90;99.90
8214;DHT22;4148;47.974;7.824;2023-03-31T07:48:42;13.20;99.90
8214;DHT22;4148;47.974;7.824;2023-03-31T07:51:12;13.80;99.90
8214;DHT22;4148;47.974;7.824;2023-03-31T07:53:40;14.60;99.90
8214;DHT22;4148;47.974;7.824;2023-03-31T07:56:08;15.40;99.90
8214;DHT22;4148;47.974;7.824;2023-03-31T07:58:36;16.10;99.90
8214;DHT22;4148;47.974;7.824;2023-03-31T08:01:05;16.70;99.90
8214;DHT22;4148;47.974;7.824;2023-03-31T08:03:34;17.40;99.90
8214;DHT22;4148;47.974;7.824;2023-03-31T08:08:31;17.20;99.90
8214;DHT22;4148;47.974;7.824;2023-03-31T08:10:59;16.80;99.90
8214;DHT22;4148;47.974;7.824;2023-03-31T08:13:27;17.10;99.90
8214;DHT22;4148;47.974;7.824;2023-03-31T08:15:54;17.50;99.90
8214;DHT22;4148;47.974;7.824;2023-03-31T08:18:24;18.10;99.90
8214;DHT22;4148;47.974;7.824;2023-03-31T08:20:52;18.40;99.90
8214;DHT22;4148;47.974;7.824;2023-03-31T08:23:20;18.90;99.90
8214;DHT22;4148;47.974;7.824;2023-03-31T08:25:47;19.30;99.90
8214;DHT22;4148;47.974;7.824;2023-03-31T08:28:15;19.50;99.90
8214;DHT22;4148;47.974;7.824;2023-03-31T08:30:44;19.30;99.90
8214;DHT22;4148;47.974;7.824;2023-03-31T08:33:11;19.20;99.90
8214;DHT22;4148;47.974;7.824;2023-03-31T08:35:41;18.80;99.90
8214;DHT22;4148;47.974;7.824;2023-03-31T08:38:08;18.40;99.90
8214;DHT22;4148;47.974;7.824;2023-03-31T08:40:39;18.40;99.90
8214;DHT22;4148;47.974;7.824;2023-03-31T08:43:13;18.30;99.90
8214;DHT22;4148;47.974;7.824;2023-03-31T08:45:45;18.30;99.90
8214;DHT22;4148;47.974;7.824;2023-03-31T08:48:20;18.20;99.90
8214;DHT22;4148;47.974;7.824;2023-03-31T08:50:56;18.10;99.90
8214;DHT22;4148;47.974;7.824;2023-03-31T08:53:27;18.20;99.90
8214;DHT22;4148;47.974;7.824;2023-03-31T08:55:56;18.10;99.90
8214;DHT22;4148;47.974;7.824;2023-03-31T08:58:33;18.00;99.90
8214;DHT22;4148;47.974;7.824;2023-03-31T09:01:11;17.80;99.90
8214;DHT22;4148;47.974;7.824;2023-03-31T09:03:48;17.50;99.90
8214;DHT22;4148;47.974;7.824;2023-03-31T09:06:28;17.00;99.90
8214;DHT22;4148;47.974;7.824;2023-03-31T09:09:01;16.90;99.90
8214;DHT22;4148;47.974;7.824;2023-03-31T09:11:33;16.80;99.90
8214;DHT22;4148;47.974;7.824;2023-03-31T09:14:19;16.60;99.90
8214;DHT22;4148;47.974;7.824;2023-03-31T09:16:57;16.70;99.90
8214;DHT22;4148;47.974;7.824;2023-03-31T09:19:33;16.60;99.90
8214;DHT22;4148;47.974;7.824;2023-03-31T09:22:07;16.60;99.90
8214;DHT22;4148;47.974;7.824;2023-03-31T09:24:47;16.40;99.90
8214;DHT22;4148;47.974;7.824;2023-03-31T09:27:17;16.20;99.90
8214;DHT22;4148;47.974;7.824;2023-03-31T09:29:49;16.20;99.90
8214;DHT22;4148;47.974;7.824;2023-03-31T09:32:20;16.20;99.90
8214;DHT22;4148;47.974;7.824;2023-03-31T09:34:51;16.10;99.90
8214;DHT22;4148;47.974;7.824;2023-03-31T09:37:21;16.10;99.90
8214;DHT22;4148;47.974;7.824;2023-03-31T09:39:49;16.20;99.90
8214;DHT22;4148;47.974;7.824;2023-03-31T09:42:17;16.30;99.90
8214;DHT22;4148;47.974;7.824;2023-03-31T09:44:46;16.30;99.90
8214;DHT22;4148;47.974;7.824;2023-03-31T09:47:20;16.30;99.90
8214;DHT22;4148;47.974;7.824;2023-03-31T09:49:52;16.20;99.90
8214;DHT22;4148;47.974;7.824;2023-03-31T09:52:26;16.30;99.90
8214;DHT22;4148;47.974;7.824;2023-03-31T09:54:59;16.40;99.90
8214;DHT22;4148;47.974;7.824;2023-03-31T09:57:29;16.70;99.90
8214;DHT22;4148;47.974;7.824;2023-03-31T10:00:05;16.90;99.90
8214;DHT22;4148;47.974;7.824;2023-03-31T10:02:41;16.80;99.90
8214;DHT22;4148;47.974;7.824;2023-03-31T10:05:25;17.10;99.90
8214;DHT22;4148;47.974;7.824;2023-03-31T10:08:22;17.20;99.90
8214;DHT22;4148;47.974;7.824;2023-03-31T10:10:53;17.00;99.90
8214;DHT22;4148;47.974;7.824;2023-03-31T10:13:23;16.80;99.90
8214;DHT22;4148;47.974;7.824;2023-03-31T10:15:53;16.70;99.90
8214;DHT22;4148;47.974;7.824;2023-03-31T10:18:31;16.60;99.90
8214;DHT22;4148;47.974;7.824;2023-03-31T10:21:01;16.60;99.80
8214;DHT22;4148;47.974;7.824;2023-03-31T10:23:34;16.50;99.90
8214;DHT22;4148;47.974;7.824;2023-03-31T10:26:03;16.40;99.90
8214;DHT22;4148;47.974;7.824;2023-03-31T10:28:32;16.20;99.90
8214;DHT22;4148;47.974;7.824;2023-03-31T10:31:01;16.00;99.70
8214;DHT22;4148;47.974;7.824;2023-03-31T10:33:31;16.00;99.70
8214;DHT22;4148;47.974;7.824;2023-03-31T10:36:02;16.10;99.30
8214;DHT22;4148;47.974;7.824;2023-03-31T10:38:37;16.10;99.90
8214;DHT22;4148;47.974;7.824;2023-03-31T10:41:06;16.20;99.80
8214;DHT22;4148;47.974;7.824;2023-03-31T10:43:37;16.20;99.80
8214;DHT22;4148;47.974;7.824;2023-03-31T10:46:07;16.20;99.90
8214;DHT22;4148;47.974;7.824;2023-03-31T10:48:37;16.20;99.90
8214;DHT22;4148;47.974;7.824;2023-03-31T10:51:11;16.10;99.90
8214;DHT22;4148;47.974;7.824;2023-03-31T10:53:44;15.90;99.90
8214;DHT22;4148;47.974;7.824;2023-03-31T10:56:30;16.00;99.90
8214;DHT22;4148;47.974;7.824;2023-03-31T10:59:23;16.10;99.90
8214;DHT22;4148;47.974;7.824;2023-03-31T11:02:04;16.30;99.90
8214;DHT22;4148;47.974;7.824;2023-03-31T11:04:47;16.30;99.90
8214;DHT22;4148;47.974;7.824;2023-03-31T11:07:30;16.40;99.90
8214;DHT22;4148;47.974;7.824;2023-03-31T11:10:22;16.60;99.40
8214;DHT22;4148;47.974;7.824;2023-03-31T11:12:58;16.30;99.90
8214;DHT22;4148;47.974;7.824;2023-03-31T11:15:32;16.30;99.80
8214;DHT22;4148;47.974;7.824;2023-03-31T11:18:18;16.00;98.40
8214;DHT22;4148;47.974;7.824;2023-03-31T11:20:58;15.80;98.70
8214;DHT22;4148;47.974;7.824;2023-03-31T11:23:39;15.60;99.20
8214;DHT22;4148;47.974;7.824;2023-03-31T11:26:12;15.50;99.40
8214;DHT22;4148;47.974;7.824;2023-03-31T11:28:59;15.50;99.30
8214;DHT22;4148;47.974;7.824;2023-03-31T11:31:37;15.70;99.40
8214;DHT22;4148;47.974;7.824;2023-03-31T11:34:17;15.80;98.80
8214;DHT22;4148;47.974;7.824;2023-03-31T11:39:54;16.20;97.80
8214;DHT22;4148;47.974;7.824;2023-03-31T11:42:34;16.10;99.00
8214;DHT22;4148;47.974;7.824;2023-03-31T11:45:11;16.10;98.30
8214;DHT22;4148;47.974;7.824;2023-03-31T11:47:44;15.70;98.80
8214;DHT22;4148;47.974;7.824;2023-03-31T11:50:16;15.60;98.60
8214;DHT22;4148;47.974;7.824;2023-03-31T11:52:51;15.30;99.20
8214;DHT22;4148;47.974;7.824;2023-03-31T11:55:21;15.00;98.90
8214;DHT22;4148;47.974;7.824;2023-03-31T11:57:59;14.70;99.10
8214;DHT22;4148;47.974;7.824;2023-03-31T12:00:31;14.00;99.90
8214;DHT22;4148;47.974;7.824;2023-03-31T12:03:05;13.60;99.90
8214;DHT22;4148;47.974;7.824;2023-03-31T12:05:39;13.30;99.90
8214;DHT22;4148;47.974;7.824;2023-03-31T12:08:14;13.30;99.90
8214;DHT22;4148;47.974;7.824;2023-03-31T12:10:45;13.50;99.90
8214;DHT22;4148;47.974;7.824;2023-03-31T12:13:33;13.60;99.90
8214;DHT22;4148;47.974;7.824;2023-03-31T12:16:05;13.70;99.80
8214;DHT22;4148;47.974;7.824;2023-03-31T12:18:40;13.80;99.90
8214;DHT22;4148;47.974;7.824;2023-03-31T12:21:09;13.80;99.30
8214;DHT22;4148;47.974;7.824;2023-03-31T12:23:40;13.90;99.80
8214;DHT22;4148;47.974;7.824;2023-03-31T12:26:17;14.00;99.10
8214;DHT22;4148;47.974;7.824;2023-03-31T12:28:54;14.10;99.20
8214;DHT22;4148;47.974;7.824;2023-03-31T12:31:25;14.30;99.40
8214;DHT22;4148;47.974;7.824;2023-03-31T12:33:57;14.40;99.70
8214;DHT22;4148;47.974;7.824;2023-03-31T12:36:37;14.50;99.60
8214;DHT22;4148;47.974;7.824;2023-03-31T12:39:20;14.70;99.90
8214;DHT22;4148;47.974;7.824;2023-03-31T12:42:03;14.70;99.80
8214;DHT22;4148;47.974;7.824;2023-03-31T12:44:46;14.80;99.90
8214;DHT22;4148;47.974;7.824;2023-03-31T12:47:33;15.00;99.90
8214;DHT22;4148;47.974;7.824;2023-03-31T12:50:34;15.30;99.90
8214;DHT22;4148;47.974;7.824;2023-03-31T12:53:14;15.60;99.90
8214;DHT22;4148;47.974;7.824;2023-03-31T12:55:45;15.70;99.90
8214;DHT22;4148;47.974;7.824;2023-03-31T12:58:39;15.70;99.90
8214;DHT22;4148;47.974;7.824;2023-03-31T13:01:19;15.50;99.90
8214;DHT22;4148;47.974;7.824;2023-03-31T13:03:50;15.40;99.90
8214;DHT22;4148;47.974;7.824;2023-03-31T13:09:47;15.60;99.90
8214;DHT22;4148;47.974;7.824;2023-03-31T13:12:20;15.50;99.90
8214;DHT22;4148;47.974;7.824;2023-03-31T13:14:50;15.40;99.90
8214;DHT22;4148;47.974;7.824;2023-03-31T13:17:23;15.20;99.90
8214;DHT22;4148;47.974;7.824;2023-03-31T13:19:52;15.20;99.90
8214;DHT22;4148;47.974;7.824;2023-03-31T13:22:32;15.10;99.90
8214;DHT22;4148;47.974;7.824;2023-03-31T13:25:31;14.90;99.90
8214;DHT22;4148;47.974;7.824;2023-03-31T13:28:13;14.80;99.90
8214;DHT22;4148;47.974;7.824;2023-03-31T13:30:49;14.60;99.90
8214;DHT22;4148;47.974;7.824;2023-03-31T13:33:30;14.20;99.90
8214;DHT22;4148;47.974;7.824;2023-03-31T13:39:26;13.50;99.90
8214;DHT22;4148;47.974;7.824;2023-03-31T13:42:05;12.70;99.90
8214;DHT22;4148;47.974;7.824;2023-03-31T13:45:03;11.80;99.90
8214;DHT22;4148;47.974;7.824;2023-03-31T13:47:57;11.40;99.90
8214;DHT22;4148;47.974;7.824;2023-03-31T13:50:45;11.10;99.90
8214;DHT22;4148;47.974;7.824;2023-03-31T13:53:34;11.10;99.90
8214;DHT22;4148;47.974;7.824;2023-03-31T13:56:22;11.00;99.90
8214;DHT22;4148;47.974;7.824;2023-03-31T14:02:11;11.20;99.90
8214;DHT22;4148;47.974;7.824;2023-03-31T14:05:03;11.00;99.90
8214;DHT22;4148;47.974;7.824;2023-03-31T14:07:37;10.90;99.90
8214;DHT22;4148;47.974;7.824;2023-03-31T14:10:22;10.70;99.90
8214;DHT22;4148;47.974;7.824;2023-03-31T14:12:50;10.90;99.90
8214;DHT22;4148;47.974;7.824;2023-03-31T14:15:20;10.80;99.90
8214;DHT22;4148;47.974;7.824;2023-03-31T14:17:48;11.00;99.90
8214;DHT22;4148;47.974;7.824;2023-03-31T14:20:27;11.00;99.90
8214;DHT22;4148;47.974;7.824;2023-03-31T14:23:10;11.00;99.90
8214;DHT22;4148;47.974;7.824;2023-03-31T14:25:47;11.10;99.90
8214;DHT22;4148;47.974;7.824;2023-03-31T14:28:29;11.10;99.90
8214;DHT22;4148;47.974;7.824;2023-03-31T14:31:11;11.00;99.90
8214;DHT22;4148;47.974;7.824;2023-03-31T14:33:55;10.90;99.90
8214;DHT22;4148;47.974;7.824;2023-03-31T14:36:30;11.00;99.90
8214;DHT22;4148;47.974;7.824;2023-03-31T14:39:08;10.90;99.90
8214;DHT22;4148;47.974;7.824;2023-03-31T14:41:37;10.90;99.90
8214;DHT22;4148;47.974;7.824;2023-03-31T14:44:06;10.80;99.90
8214;DHT22;4148;47.974;7.824;2023-03-31T14:46:37;10.80;99.90
8214;DHT22;4148;47.974;7.824;2023-03-31T14:49:06;10.90;99.90
8214;DHT22;4148;47.974;7.824;2023-03-31T14:51:42;11.00;99.90
8214;DHT22;4148;47.974;7.824;2023-03-31T14:54:15;11.00;99.90
8214;DHT22;4148;47.974;7.824;2023-03-31T14:56:45;11.10;99.90
8214;DHT22;4148;47.974;7.824;2023-03-31T14:59:18;11.20;99.90
8214;DHT22;4148;47.974;7.824;2023-03-31T15:01:48;11.40;99.90
8214;DHT22;4148;47.974;7.824;2023-03-31T15:04:19;11.60;99.90
8214;DHT22;4148;47.974;7.824;2023-03-31T15:07:05;11.70;99.90
8214;DHT22;4148;47.974;7.824;2023-03-31T15:09:35;11.90;99.90
8214;DHT22;4148;47.974;7.824;2023-03-31T15:12:07;12.10;99.90
8214;DHT22;4148;47.974;7.824;2023-03-31T15:14:41;12.10;99.90
8214;DHT22;4148;47.974;7.824;2023-03-31T15:17:20;12.10;99.90
8214;DHT22;4148;47.974;7.824;2023-03-31T15:19:52;12.20;99.90
8214;DHT22;4148;47.974;7.824;2023-03-31T15:22:23;12.20;99.90
8214;DHT22;4148;47.974;7.824;2023-03-31T15:24:53;12.40;99.90
8214;DHT22;4148;47.974;7.824;2023-03-31T15:27:29;12.40;99.90
8214;DHT22;4148;47.974;7.824;2023-03-31T15:30:05;12.40;99.90
8214;DHT22;4148;47.974;7.824;2023-03-31T15:32:35;12.40;99.90
8214;DHT22;4148;47.974;7.824;2023-03-31T15:35:05;12.30;99.90
8214;DHT22;4148;47.974;7.824;2023-03-31T15:37:49;12.30;99.90
8214;DHT22;4148;47.974;7.824;2023-03-31T15:40:21;12.30;99.90
8214;DHT22;4148;47.974;7.824;2023-03-31T15:42:52;12.30;99.90
8214;DHT22;4148;47.974;7.824;2023-03-31T15:45:49;12.40;99.90
8214;DHT22;4148;47.974;7.824;2023-03-31T15:48:23;12.30;99.90
8214;DHT22;4148;47.974;7.824;2023-03-31T15:50:58;12.30;99.90
8214;DHT22;4148;47.974;7.824;2023-03-31T15:53:29;12.30;99.90
8214;DHT22;4148;47.974;7.824;2023-03-31T15:55:59;12.30;99.90
8214;DHT22;4148;47.974;7.824;2023-03-31T15:58:55;12.30;99.90
8214;DHT22;4148;47.974;7.824;2023-03-31T16:01:27;12.30;99.90
8214;DHT22;4148;47.974;7.824;2023-03-31T16:03:59;12.20;99.90
8214;DHT22;4148;47.974;7.824;2023-03-31T16:06:41;12.20;99.90
8214;DHT22;4148;47.974;7.824;2023-03-31T16:09:12;12.20;99.90
8214;DHT22;4148;47.974;7.824;2023-03-31T16:11:45;12.30;99.90
8214;DHT22;4148;47.974;7.824;2023-03-31T16:14:18;12.20;99.90
8214;DHT22;4148;47.974;7.824;2023-03-31T16:16:50;12.20;99.90
8214;DHT22;4148;47.974;7.824;2023-03-31T16:19:21;12.10;99.90
8214;DHT22;4148;47.974;7.824;2023-03-31T16:21:52;12.10;99.90
8214;DHT22;4148;47.974;7.824;2023-03-31T16:24:28;12.10;99.90
8214;DHT22;4148;47.974;7.824;2023-03-31T16:26:59;12.10;99.90
8214;DHT22;4148;47.974;7.824;2023-03-31T16:29:32;12.10;99.90
8214;DHT22;4148;47.974;7.824;2023-03-31T16:32:09;12.20;99.90
8214;DHT22;4148;47.974;7.824;2023-03-31T16:34:51;12.10;99.90
8214;DHT22;4148;47.974;7.824;2023-03-31T16:37:20;12.10;99.90
8214;DHT22;4148;47.974;7.824;2023-03-31T16:39:48;12.00;99.90
8214;DHT22;4148;47.974;7.824;2023-03-31T16:42:20;12.20;99.90
8214;DHT22;4148;47.974;7.824;2023-03-31T16:44:48;12.00;99.90
8214;DHT22;4148;47.974;7.824;2023-03-31T16:47:37;12.00;99.90
8214;DHT22;4148;47.974;7.824;2023-03-31T16:50:05;12.00;99.90
8214;DHT22;4148;47.974;7.824;2023-03-31T16:52:34;12.10;99.90
8214;DHT22;4148;47.974;7.824;2023-03-31T16:55:03;12.10;99.90
8214;DHT22;4148;47.974;7.824;2023-03-31T16:57:32;12.00;99.90
8214;DHT22;4148;47.974;7.824;2023-03-31T17:00:00;11.90;99.90